Terminal Aerodrome Forecast
Issued by NWS North Platte, NE

Home | Current Version | Previous Version | Graphics & Text | Print | Product List | Glossary On
Versions: 1 2 3 4 5 6 7 8 9 10 11 12 13 14 15 16 17 18 19 20 21 22 23 24 25
000
FTUS43 KLBF 251100
TAFVTN
TAF
KVTN 251138Z 2512/2612 29013KT P6SM VCSH BKN060 OVC070
     FM251500 33016G23KT 5SM -SN BR OVC025
      TEMPO 2515/2518 1 1/2SM -SN OVC015
     FM251800 36017G30KT P6SM -SN OVC025
     FM252100 36017G30KT P6SM OVC025
     FM260000 36015G20KT P6SM OVC050=

USA.gov is the U.S. government's official web portal to all federal, state and local government web resources and services.